createdAt,value
2023-05-21T11:57:30.698Z,21.93
2023-05-21T12:00:14.195Z,22.85
2023-05-21T12:02:59.473Z,21.93
2023-05-21T12:05:51.572Z,23.09
2023-05-21T12:08:38.414Z,21.57
2023-05-21T12:11:16.692Z,21.59
2023-05-21T12:14:12.724Z,22.23
2023-05-21T12:16:53.803Z,21.70
2023-05-21T12:19:43.265Z,21.57
2023-05-21T12:22:29.885Z,21.35
2023-05-21T12:25:20.684Z,22.09
2023-05-21T12:27:59.250Z,21.48
2023-05-21T12:30:40.120Z,21.01
2023-05-21T12:33:25.015Z,21.35
2023-05-21T12:36:04.139Z,22.27
2023-05-21T12:38:48.528Z,22.38
2023-05-21T12:41:22.168Z,20.89
2023-05-21T12:44:05.809Z,21.52
2023-05-21T12:46:54.196Z,20.79
2023-05-21T12:49:58.521Z,21.70
2023-05-21T12:52:43.210Z,20.76
2023-05-21T12:55:26.818Z,21.30
2023-05-21T12:58:18.397Z,21.27
2023-05-21T13:01:16.764Z,19.98
2023-05-21T13:04:06.574Z,19.57
2023-05-21T13:06:50.426Z,19.13
2023-05-21T13:09:35.334Z,20.44
2023-05-21T13:12:19.522Z,21.86
2023-05-21T13:15:16.050Z,21.47
2023-05-21T13:18:02.219Z,21.70
2023-05-21T13:20:51.226Z,20.87
2023-05-21T13:23:35.172Z,19.17
2023-05-21T13:26:26.109Z,19.17
2023-05-21T13:29:14.925Z,20.04
2023-05-21T13:32:03.464Z,18.80
2023-05-21T13:34:55.325Z,18.16
2023-05-21T13:37:38.277Z,17.80
2023-05-21T13:40:26.169Z,19.12
2023-05-21T13:43:08.792Z,19.00
2023-05-21T13:45:54.259Z,20.19
2023-05-21T13:48:52.230Z,18.73
2023-05-21T13:51:38.523Z,20.10
2023-05-21T13:54:33.644Z,19.86
2023-05-21T13:57:37.522Z,19.80
2023-05-21T14:00:19.246Z,20.08
2023-05-21T14:03:05.406Z,21.15
2023-05-21T14:05:44.212Z,21.03
2023-05-21T14:08:30.585Z,19.87
2023-05-21T14:11:17.607Z,19.74
2023-05-21T14:14:03.977Z,20.59
2023-05-21T14:16:47.441Z,19.32
2023-05-21T14:19:39.127Z,19.21
2023-05-21T14:22:20.652Z,19.64
2023-05-21T14:25:04.137Z,19.55
2023-05-21T14:27:50.199Z,19.03
2023-05-21T14:30:27.870Z,18.90
2023-05-21T14:33:16.513Z,19.11
2023-05-21T14:36:13.715Z,18.25
2023-05-21T14:39:03.233Z,18.79
2023-05-21T14:41:47.923Z,19.89
2023-05-21T14:44:32.706Z,19.10
2023-05-21T14:47:17.785Z,18.08
2023-05-21T14:49:56.272Z,18.86
2023-05-21T14:52:36.942Z,18.79
2023-05-21T14:55:17.109Z,17.61
2023-05-21T14:58:00.407Z,18.78
2023-05-21T15:00:45.755Z,19.24
2023-05-21T15:03:31.897Z,19.96
2023-05-21T15:06:22.336Z,19.09
2023-05-21T15:09:15.781Z,18.49
2023-05-21T15:12:06.245Z,18.53
2023-05-21T15:14:50.296Z,18.35
2023-05-21T15:17:39.420Z,19.09
2023-05-21T15:20:25.315Z,18.25
2023-05-21T15:23:17.472Z,18.39
2023-05-21T15:26:02.951Z,18.92
2023-05-21T15:28:38.409Z,20.11
2023-05-21T15:31:31.051Z,19.06
2023-05-21T15:34:25.940Z,20.72
2023-05-21T15:37:09.213Z,20.82
2023-05-21T15:39:57.980Z,20.52
2023-05-21T15:42:42.472Z,19.61
2023-05-21T15:45:28.315Z,19.86
2023-05-21T15:48:14.861Z,20.32
2023-05-21T15:50:58.546Z,19.59
2023-05-21T15:53:44.526Z,19.63
2023-05-21T15:56:28.057Z,19.83
2023-05-21T15:59:04.261Z,18.43
2023-05-21T16:01:54.266Z,18.95
2023-05-21T16:04:36.530Z,18.88
2023-05-21T16:07:23.627Z,18.16
2023-05-21T16:10:07.644Z,18.46
2023-05-21T16:12:59.058Z,18.84
2023-05-21T16:15:44.957Z,18.09
2023-05-21T16:18:27.034Z,18.80
2023-05-21T16:21:13.260Z,19.20
2023-05-21T16:24:06.442Z,19.02
2023-05-21T16:26:55.110Z,19.08
2023-05-21T16:29:41.888Z,17.74
2023-05-21T16:32:40.300Z,18.60
2023-05-21T16:35:28.177Z,19.00
2023-05-21T16:38:15.296Z,19.43
2023-05-21T16:40:53.339Z,19.75
2023-05-21T16:43:37.974Z,18.64
2023-05-21T16:46:24.503Z,18.87
2023-05-21T16:49:14.155Z,18.79
2023-05-21T16:51:58.486Z,18.66
2023-05-21T16:54:50.188Z,19.37
2023-05-21T16:57:38.633Z,19.65
2023-05-21T17:00:11.716Z,19.06
2023-05-21T17:02:57.938Z,19.59
2023-05-21T17:05:38.868Z,19.66
2023-05-21T17:08:26.712Z,19.73
2023-05-21T17:11:08.257Z,19.47
2023-05-21T17:13:51.303Z,20.07
2023-05-21T17:16:31.414Z,20.20
2023-05-21T17:19:23.370Z,20.46
2023-05-21T17:22:01.330Z,21.36
2023-05-21T17:24:45.296Z,22.07
2023-05-21T17:27:23.124Z,23.07
2023-05-21T17:30:10.710Z,24.60
2023-05-21T17:32:59.655Z,24.66
2023-05-21T17:35:41.627Z,24.59
2023-05-21T17:38:31.008Z,26.28
2023-05-21T17:41:19.250Z,26.09
2023-05-21T17:44:14.265Z,27.32
2023-05-21T17:46:57.724Z,27.13
2023-05-21T17:49:41.154Z,27.28
2023-05-21T17:52:27.086Z,28.05
2023-05-21T17:55:21.603Z,28.76
2023-05-21T17:58:06.832Z,28.17
2023-05-21T18:00:52.298Z,28.47
2023-05-21T18:03:28.227Z,29.00
2023-05-21T18:06:11.297Z,29.75
2023-05-21T18:08:53.138Z,29.88
2023-05-21T18:11:30.773Z,30.54
2023-05-21T18:14:14.103Z,31.89
2023-05-21T18:16:58.419Z,32.44
2023-05-21T18:19:47.787Z,33.07
2023-05-21T18:22:31.617Z,33.43
2023-05-21T18:25:14.680Z,33.93
2023-05-21T18:27:59.878Z,33.56
2023-05-21T18:30:44.516Z,33.36
2023-05-21T18:33:31.568Z,33.18
2023-05-21T18:36:16.697Z,33.30
2023-05-21T18:39:02.302Z,34.59
2023-05-21T18:41:47.262Z,34.83
2023-05-21T18:44:32.790Z,35.48
2023-05-21T18:47:19.984Z,36.43
2023-05-21T18:50:03.068Z,35.71
2023-05-21T18:52:54.758Z,36.69
2023-05-21T18:55:39.328Z,36.37
2023-05-21T18:58:17.254Z,35.94
2023-05-21T19:01:06.742Z,36.11
2023-05-21T19:03:56.063Z,36.89
2023-05-21T19:06:38.385Z,38.13
2023-05-21T19:09:25.339Z,38.97
2023-05-21T19:12:12.091Z,38.59
2023-05-21T19:14:55.621Z,39.87
2023-05-21T19:17:39.086Z,40.07
2023-05-21T19:20:27.486Z,39.96
2023-05-21T19:23:04.629Z,40.90
2023-05-21T19:25:47.275Z,41.07
2023-05-21T19:28:26.716Z,40.73
2023-05-21T19:31:05.313Z,40.06
2023-05-21T19:33:46.895Z,40.06
2023-05-21T19:36:25.833Z,39.77
2023-05-21T19:39:17.754Z,39.46
2023-05-21T19:41:58.707Z,40.39
2023-05-21T19:44:44.875Z,41.01
2023-05-21T19:47:31.532Z,41.07
2023-05-21T19:50:12.902Z,42.07
2023-05-21T19:53:04.778Z,40.76
2023-05-21T19:55:54.369Z,40.36
2023-05-21T19:58:40.974Z,40.57
2023-05-21T20:01:23.591Z,40.97
2023-05-21T20:03:56.507Z,40.55
2023-05-21T20:06:40.316Z,40.42
2023-05-21T20:09:18.584Z,40.24
2023-05-21T20:12:05.086Z,42.59
2023-05-21T20:14:49.454Z,42.54
2023-05-21T20:17:24.746Z,40.85
2023-05-21T20:20:12.568Z,41.01
2023-05-21T20:22:56.384Z,42.44
2023-05-21T20:25:40.299Z,42.17
2023-05-21T20:28:19.826Z,42.61
2023-05-21T20:31:07.407Z,41.85
2023-05-21T20:33:47.653Z,41.63
2023-05-21T20:36:29.913Z,43.60
2023-05-21T20:39:23.441Z,42.49
2023-05-21T20:41:59.899Z,43.31
2023-05-21T20:44:48.027Z,43.06
2023-05-21T20:47:24.492Z,42.89
2023-05-21T20:50:02.287Z,43.13
2023-05-21T20:52:40.292Z,43.85
2023-05-21T20:55:21.563Z,43.08
2023-05-21T20:57:59.015Z,44.33
2023-05-21T21:00:46.997Z,43.27
2023-05-21T21:03:20.568Z,44.55
2023-05-21T21:06:09.918Z,42.39
2023-05-21T21:08:51.232Z,41.19
2023-05-21T21:11:32.281Z,41.06
2023-05-21T21:14:07.372Z,40.62
2023-05-21T21:16:46.743Z,41.78
2023-05-21T21:19:29.906Z,42.49
2023-05-21T21:22:09.942Z,43.18
2023-05-21T21:25:00.131Z,43.52
2023-05-21T21:27:44.680Z,41.44
2023-05-21T21:30:42.604Z,39.40
2023-05-21T21:33:27.363Z,37.67
2023-05-21T21:36:28.957Z,37.15
2023-05-21T21:39:08.222Z,36.43
2023-05-21T21:41:54.366Z,35.70
2023-05-21T21:44:32.692Z,35.49
2023-05-21T21:47:11.410Z,34.97
2023-05-21T21:50:06.812Z,34.53
2023-05-21T21:53:04.251Z,34.19
2023-05-21T21:55:38.719Z,34.05
2023-05-21T21:58:20.005Z,33.88
2023-05-21T22:01:01.745Z,32.70
2023-05-21T22:03:46.248Z,32.73
2023-05-21T22:06:30.664Z,32.65
2023-05-21T22:09:17.171Z,32.07
2023-05-21T22:12:10.842Z,32.50
2023-05-21T22:14:53.995Z,32.24
2023-05-21T22:17:37.736Z,32.20
2023-05-21T22:20:17.938Z,32.22
2023-05-21T22:22:59.273Z,31.79
2023-05-21T22:25:51.252Z,31.14
2023-05-21T22:28:36.333Z,31.52
2023-05-21T22:31:21.148Z,31.12
2023-05-21T22:34:12.792Z,30.44
2023-05-21T22:36:59.225Z,30.63
2023-05-21T22:39:41.479Z,31.24
2023-05-21T22:42:23.252Z,31.37
2023-05-21T22:45:08.323Z,30.82
2023-05-21T22:47:54.686Z,30.89
2023-05-21T22:50:46.987Z,31.43
2023-05-21T22:53:34.156Z,32.12
2023-05-21T22:56:18.130Z,31.84
2023-05-21T22:59:00.124Z,31.71
2023-05-21T23:01:42.384Z,32.01
2023-05-21T23:04:35.619Z,32.47
2023-05-21T23:07:19.856Z,34.41
2023-05-21T23:10:09.677Z,35.29
2023-05-21T23:12:53.304Z,35.70
2023-05-21T23:15:44.065Z,35.47
2023-05-21T23:18:27.660Z,36.42
2023-05-21T23:21:09.304Z,36.99
2023-05-21T23:23:50.128Z,39.11
2023-05-21T23:26:36.133Z,38.81
2023-05-21T23:29:15.279Z,38.50
2023-05-21T23:31:54.648Z,37.35
2023-05-21T23:34:36.987Z,37.28
2023-05-21T23:37:22.713Z,37.07
2023-05-21T23:40:08.359Z,36.89
2023-05-21T23:42:51.659Z,37.27
2023-05-21T23:45:42.219Z,37.87
2023-05-21T23:48:17.629Z,37.28
2023-05-21T23:50:52.906Z,36.95
2023-05-21T23:53:36.831Z,36.88
2023-05-21T23:56:15.295Z,35.93
2023-05-21T23:58:53.626Z,35.93
